Evan Wibowo

Olheiro-Chefe - Persebaya
3 Dez 2028
Domingo
Processo

Personalidade

Adaptabilidade (9) Ambição (19) Controvérsia (10) Lealdade (11) Pressão (11) Profissionalismo (17) Espírito Esportivo (14) Temperamento (20)

Perfil

Estilo de Treinamento Democrático
Licença Continental A
Determinação 10
Gestão de Pessoas 8
Motivação 8
Disciplina 4
Satisfação no Trabalho
100%
Fadiga
0%
Função Olheiro-Chefe
Salário 41.9K p/s
Contrato 14.03.2029

Desempenho

Comportamento Bom
Eficácia do Treinamento
24%
Desenvolvimento do Jogador
40%
Prevenção de Lesões
35%
Implementação Tática
20%

Eventos Recentes

Participou de uma reunião de recrutamento 7d atrás
Participou de uma reunião de recrutamento 14d atrás
Participou de uma reunião de recrutamento 21d atrás
Participou de uma reunião de recrutamento 28d atrás
Participou de uma reunião de recrutamento 35d atrás
Participou de uma reunião de recrutamento 42d atrás
Participou de uma reunião de recrutamento 49d atrás
Participou de uma reunião de recrutamento 56d atrás

Monitorando agora

85
Jogador Clube Status Habilidade Confiança Observado Última observação Último voto
Sudi Abdallah Persijap Rejeitado 93 / 103 76% 1 31.07.2028 -
Luquinhas PSBS Biak Rejeitado 94 / 103 76% 1 02.06.2028 -
Mauricio Vera Bhayangkara Presisi Ativo 122 / 128 40% 1 17.01.2028 -
Iago Mendonça Borneo Ativo 100 / 100 40% 4 27.12.2027 -
Gabriel Díaz Patronato Ativo 108 / 130 40% 1 27.12.2027 -
Ivar Jenner Dewa United Ativo 107 / 106 40% 2 26.12.2027 -
Tomás Rojas Atlanta Ativo 109 / 129 40% 1 25.12.2027 -
Agustín Maidana San Marcos de Arica Ativo 111 / 94 40% 1 25.12.2027 -
Radovan Pankov Persija Ativo 112 / 102 40% 2 24.12.2027 -
Mirza Mustafić Bali United Ativo 97 / 98 40% 1 24.12.2027 -
Jaime Giraldo Semen Padang Ativo 101 / 108 40% 3 23.12.2027 -
Enzo Silcan Almagro Ativo 105 / 110 40% 1 22.12.2027 -
Ruxi Madura United Ativo 95 / 103 40% 2 19.12.2027 -
Kerim Palić Madura United Ativo 106 / 113 40% 1 18.12.2027 -
Borja Martínez Persijap Ativo 109 / 95 40% 1 18.12.2027 -
Leonel Pollacchi San Telmo Ativo 112 / 120 40% 3 15.12.2027 -
Igor Inocêncio Maluku Utara United Ativo 120 / 122 40% 3 14.12.2027 -
Bruno Tubarão Persija Ativo 120 / 119 40% 3 13.12.2027 -
Franco Hanashiro Colegiales Ativo 102 / 120 40% 1 13.12.2027 -
Pablo Oliveira Arema Ativo 107 / 104 40% 1 06.12.2027 -
Miroslav Maričić Persis Ativo 104 / 102 40% 1 20.11.2027 -
Franco Ramos Mingo PSIM Ativo 93 / 91 40% 1 20.11.2027 -
Yeferson Rodallega Envigado Ativo 111 / 117 40% 2 18.11.2027 -
Mendonça Madura United Ativo 94 / 98 40% 1 18.11.2027 -
Johnathan Dewa United Ativo 109 / 115 40% 1 17.11.2027 -
Brandon Wilson Bali United Ativo 86 / 103 40% 1 04.11.2027 -
Thijmen Goppel Bali United Ativo 120 / 117 40% 2 06.10.2027 -
Ramón Bueno Persita Ativo 101 / 104 40% 1 05.09.2027 -
Danijel Lončar Persib Ativo 112 / 92 40% 2 24.08.2027 -
Mohammad Al-Husseini Borneo Ativo 86 / 94 40% 1 15.08.2027 -
Sávio PSM Ativo 107 / 100 40% 1 12.08.2027 -
Lautaro Núñez Alvarado Ativo 98 / 104 40% 2 10.08.2027 -
Remeao Hutton Gillingham Ativo 105 / 94 40% 1 07.08.2027 -
Aly Ndom Persijap Ativo 99 / 91 40% 1 03.08.2027 -
Tin Martić Semen Padang Ativo 102 / 106 40% 1 31.07.2027 -
Nikita Pechenkin Sokol Ativo 95 / 102 40% 6 13.07.2027 -
Stefan Lončar Akron Ativo 118 / 126 40% 3 11.07.2027 -
David Shavlokhov Chernomorets Ativo 93 / 82 40% 3 07.07.2027 -
David Kokoev Yenisey Ativo 99 / 104 40% 3 07.07.2027 -
Alexey Berdnikov Chelyabinsk Ativo 93 / 81 40% 2 02.07.2027 -
Oleg Lanin Shinnik Ativo 98 / 92 40% 3 30.06.2027 -
Alan Khabalov Ufa Ativo 90 / 90 40% 2 26.06.2027 -
Joe Snowdon Swindon Town Ativo 93 / 88 40% 1 25.06.2027 -
Niccolò Zanellato Casarano Ativo 114 / 99 40% 1 24.06.2027 -
Pêpê Pafos Ativo 125 / 118 40% 1 20.06.2027 -
Hamza El Kaouakibi Südtirol Ativo 101 / 115 40% 2 19.06.2027 -
Saminu Abdullahi KAMAZ Ativo 93 / 86 40% 3 30.05.2027 -
Mario Ćurić Torpedo Moscow Ativo 102 / 91 40% 2 29.05.2027 -
Kirill Malyarov Shinnik Ativo 102 / 102 40% 4 24.05.2027 -
Riley Owen Stevenage Ativo 107 / 95 40% 3 23.05.2027 -
Daniil Marugin Shinnik Ativo 87 / 100 40% 2 21.05.2027 -
Vladis Emmersón Yenisey Ativo 101 / 95 40% 2 21.05.2027 -
Vladislav Masternoy SKA Khabarovsk Ativo 87 / 83 40% 3 17.05.2027 -
Kamil Ibragimov Volga Ativo 101 / 92 40% 1 14.05.2027 -
Tiri Persijap Ativo 115 / 115 30% 1 / 1m 12.05.2027 -
Rakhmatsho Rakhmatzoda Persijap Ativo 92 / 95 30% 1 / 1m 12.05.2027 -
Pavel Maslov Chaika Ativo 107 / 96 40% 3 09.05.2027 -
Fahd Moufi Baltika Ativo 111 / 134 40% 2 09.05.2027 -
Leandro Martins Benfica Ativo 85 / 94 40% 1 08.05.2027 -
Igor Konovalov Chernomorets Ativo 92 / 86 40% 1 04.05.2027 -
Ruslan Baitukov Chelyabinsk Ativo 97 / 83 40% 1 26.04.2027 -
Alessio Rizza Livorno Ativo 102 / 113 40% 1 26.04.2027 -
Daniil Penchikov Arsenal Tula Ativo 104 / 97 40% 2 25.04.2027 -
Giorgi Kantaria Neftekhimik Ativo 98 / 95 40% 2 24.04.2027 -
Gleb Shevchenko Torpedo Moscow Ativo 98 / 101 40% 2 21.04.2027 -
Vladislav Malkevich Ural Ativo 95 / 92 40% 1 21.04.2027 -
Denis Fomin SKA Khabarovsk Ativo 104 / 100 40% 1 18.04.2027 -
Soslan Kagermazov Dinamo Makhachkala Ativo 91 / 109 40% 2 15.04.2027 -
Vyacheslav Yakimov Fakel Ativo 117 / 108 40% 1 14.04.2027 -
Kirill Bolshakov Arsenal Tula Ativo 110 / 101 40% 1 12.04.2027 -
Mitja Križan Rodina Ativo 102 / 96 40% 1 10.04.2027 -
Leo Goglichidze Rodina Ativo 123 / 118 40% 2 09.04.2027 -
Vladislav Kamilov Ufa Ativo 93 / 92 40% 2 08.04.2027 -
Konstantin Kertanov Chelyabinsk Ativo 105 / 95 40% 2 08.04.2027 -
Andrea Chukanov Yenisey Ativo 105 / 91 40% 2 03.04.2027 -
Konstantin Kovalev Volga Ativo 87 / 103 40% 2 03.04.2027 -
Artem Makarchuk Sochi Ativo 122 / 129 40% 1 30.03.2027 -
Yegor Noskov SKA Khabarovsk Ativo 99 / 78 40% 2 23.03.2027 -
Mingiyan Beveev Baltika Ativo 105 / 100 40% 1 15.03.2027 -
Alexandr Troshechkin Rotor Ativo 97 / 93 40% 1 12.03.2027 -
Artur Cherny Shinnik Ativo 101 / 109 40% 1 07.03.2027 -
Ezequiel Vidal PSIM Ativo 127 / 127 52% 1 / 1m 19.08.2026 -
Giovanni González River Plate Ativo 139 / 121 40% 1 01.08.2026 -
Alejo Osella Independiente Rivadavia Ativo 113 / 112 40% 1 01.08.2026 -
Takahiro Sekine Sydney FC Ativo 110 / 124 40% 1 01.08.2026 -